sensor_id;sensor_type;location;lat;lon;timestamp;P1;durP1;ratioP1;P2;durP2;ratioP2
9729;SDS011;4904;49.152;11.004;2022-08-05T00:00:13;3.28;;;3.00;;
9729;SDS011;4904;49.152;11.004;2022-08-05T00:02:42;3.25;;;2.92;;
9729;SDS011;4904;49.152;11.004;2022-08-05T00:05:09;2.90;;;2.70;;
9729;SDS011;4904;49.152;11.004;2022-08-05T00:07:36;3.63;;;3.00;;
9729;SDS011;4904;49.152;11.004;2022-08-05T00:10:04;4.28;;;2.80;;
9729;SDS011;4904;49.152;11.004;2022-08-05T00:12:31;4.78;;;3.35;;
9729;SDS011;4904;49.152;11.004;2022-08-05T00:14:58;5.72;;;2.90;;
9729;SDS011;4904;49.152;11.004;2022-08-05T00:17:25;4.57;;;2.92;;
9729;SDS011;4904;49.152;11.004;2022-08-05T00:19:53;3.47;;;2.90;;
9729;SDS011;4904;49.152;11.004;2022-08-05T00:22:20;3.30;;;3.00;;
9729;SDS011;4904;49.152;11.004;2022-08-05T00:24:47;5.15;;;3.05;;
9729;SDS011;4904;49.152;11.004;2022-08-05T00:27:14;4.10;;;2.95;;
9729;SDS011;4904;49.152;11.004;2022-08-05T00:29:41;3.35;;;3.13;;
9729;SDS011;4904;49.152;11.004;2022-08-05T00:32:07;5.25;;;3.13;;
9729;SDS011;4904;49.152;11.004;2022-08-05T00:34:37;3.20;;;2.90;;
9729;SDS011;4904;49.152;11.004;2022-08-05T00:37:06;3.10;;;2.90;;
9729;SDS011;4904;49.152;11.004;2022-08-05T00:39:32;3.60;;;3.28;;
9729;SDS011;4904;49.152;11.004;2022-08-05T00:41:59;3.03;;;2.72;;
9729;SDS011;4904;49.152;11.004;2022-08-05T00:44:26;4.35;;;3.20;;
9729;SDS011;4904;49.152;11.004;2022-08-05T00:46:53;3.65;;;3.30;;
9729;SDS011;4904;49.152;11.004;2022-08-05T00:49:20;3.30;;;3.08;;
9729;SDS011;4904;49.152;11.004;2022-08-05T00:51:47;6.40;;;3.05;;
9729;SDS011;4904;49.152;11.004;2022-08-05T00:54:15;4.00;;;3.03;;
9729;SDS011;4904;49.152;11.004;2022-08-05T00:56:42;3.67;;;2.97;;
9729;SDS011;4904;49.152;11.004;2022-08-05T00:59:09;3.20;;;2.90;;
9729;SDS011;4904;49.152;11.004;2022-08-05T01:01:36;4.00;;;3.45;;
9729;SDS011;4904;49.152;11.004;2022-08-05T01:04:03;3.75;;;3.38;;
9729;SDS011;4904;49.152;11.004;2022-08-05T01:06:30;3.78;;;3.38;;
9729;SDS011;4904;49.152;11.004;2022-08-05T01:08:57;5.25;;;3.00;;
9729;SDS011;4904;49.152;11.004;2022-08-05T01:11:27;3.40;;;2.97;;
9729;SDS011;4904;49.152;11.004;2022-08-05T01:14:03;4.22;;;3.20;;
9729;SDS011;4904;49.152;11.004;2022-08-05T01:16:37;3.08;;;2.88;;
9729;SDS011;4904;49.152;11.004;2022-08-05T01:19:10;3.03;;;2.83;;
9729;SDS011;4904;49.152;11.004;2022-08-05T01:21:51;3.92;;;3.47;;
9729;SDS011;4904;49.152;11.004;2022-08-05T01:24:34;3.20;;;3.00;;
9729;SDS011;4904;49.152;11.004;2022-08-05T01:27:17;3.20;;;3.00;;
9729;SDS011;4904;49.152;11.004;2022-08-05T01:29:58;4.15;;;3.35;;
9729;SDS011;4904;49.152;11.004;2022-08-05T01:32:29;3.97;;;3.38;;
9729;SDS011;4904;49.152;11.004;2022-08-05T01:35:01;4.20;;;3.03;;
9729;SDS011;4904;49.152;11.004;2022-08-05T01:37:34;3.05;;;2.85;;
9729;SDS011;4904;49.152;11.004;2022-08-05T01:40:05;3.55;;;3.25;;
9729;SDS011;4904;49.152;11.004;2022-08-05T01:42:41;4.25;;;3.70;;
9729;SDS011;4904;49.152;11.004;2022-08-05T01:45:11;3.65;;;3.00;;
9729;SDS011;4904;49.152;11.004;2022-08-05T01:47:40;3.80;;;3.38;;
9729;SDS011;4904;49.152;11.004;2022-08-05T01:50:10;3.35;;;3.00;;
9729;SDS011;4904;49.152;11.004;2022-08-05T01:52:39;3.97;;;3.47;;
9729;SDS011;4904;49.152;11.004;2022-08-05T01:55:08;4.78;;;3.00;;
9729;SDS011;4904;49.152;11.004;2022-08-05T01:57:38;4.78;;;2.95;;
9729;SDS011;4904;49.152;11.004;2022-08-05T02:00:08;4.18;;;3.20;;
9729;SDS011;4904;49.152;11.004;2022-08-05T02:02:38;3.47;;;3.17;;
9729;SDS011;4904;49.152;11.004;2022-08-05T02:05:08;3.55;;;3.35;;
9729;SDS011;4904;49.152;11.004;2022-08-05T02:07:38;3.58;;;3.28;;
9729;SDS011;4904;49.152;11.004;2022-08-05T02:10:07;3.75;;;3.40;;
9729;SDS011;4904;49.152;11.004;2022-08-05T02:12:36;3.92;;;2.78;;
9729;SDS011;4904;49.152;11.004;2022-08-05T02:15:09;4.43;;;3.10;;
9729;SDS011;4904;49.152;11.004;2022-08-05T02:17:48;4.20;;;3.33;;
9729;SDS011;4904;49.152;11.004;2022-08-05T02:20:19;8.88;;;3.38;;
9729;SDS011;4904;49.152;11.004;2022-08-05T02:22:49;3.90;;;3.53;;
9729;SDS011;4904;49.152;11.004;2022-08-05T02:25:24;4.38;;;3.72;;
9729;SDS011;4904;49.152;11.004;2022-08-05T02:27:54;6.40;;;4.80;;
9729;SDS011;4904;49.152;11.004;2022-08-05T02:30:22;5.00;;;4.07;;
9729;SDS011;4904;49.152;11.004;2022-08-05T02:32:53;4.25;;;3.55;;
9729;SDS011;4904;49.152;11.004;2022-08-05T02:35:23;3.85;;;3.40;;
9729;SDS011;4904;49.152;11.004;2022-08-05T02:37:52;3.90;;;3.53;;
9729;SDS011;4904;49.152;11.004;2022-08-05T02:40:20;3.95;;;3.58;;
9729;SDS011;4904;49.152;11.004;2022-08-05T02:42:49;6.53;;;3.47;;
9729;SDS011;4904;49.152;11.004;2022-08-05T02:45:18;4.63;;;3.55;;
9729;SDS011;4904;49.152;11.004;2022-08-05T02:47:46;4.03;;;3.53;;
9729;SDS011;4904;49.152;11.004;2022-08-05T02:50:16;3.78;;;3.35;;
9729;SDS011;4904;49.152;11.004;2022-08-05T02:52:44;3.90;;;3.60;;
9729;SDS011;4904;49.152;11.004;2022-08-05T02:55:11;4.28;;;3.88;;
9729;SDS011;4904;49.152;11.004;2022-08-05T02:57:39;4.38;;;3.97;;
9729;SDS011;4904;49.152;11.004;2022-08-05T03:00:07;3.65;;;3.33;;
9729;SDS011;4904;49.152;11.004;2022-08-05T03:02:37;4.05;;;3.38;;
9729;SDS011;4904;49.152;11.004;2022-08-05T03:05:07;5.10;;;3.70;;
9729;SDS011;4904;49.152;11.004;2022-08-05T03:07:36;3.60;;;3.30;;
9729;SDS011;4904;49.152;11.004;2022-08-05T03:10:05;4.63;;;3.30;;
9729;SDS011;4904;49.152;11.004;2022-08-05T03:12:33;5.68;;;3.72;;
9729;SDS011;4904;49.152;11.004;2022-08-05T03:15:06;4.18;;;3.42;;
9729;SDS011;4904;49.152;11.004;2022-08-05T03:17:35;3.90;;;3.60;;
9729;SDS011;4904;49.152;11.004;2022-08-05T03:20:02;4.55;;;3.80;;
9729;SDS011;4904;49.152;11.004;2022-08-05T03:22:30;4.80;;;3.42;;
9729;SDS011;4904;49.152;11.004;2022-08-05T03:24:58;5.38;;;3.90;;
9729;SDS011;4904;49.152;11.004;2022-08-05T03:27:26;3.72;;;3.45;;
9729;SDS011;4904;49.152;11.004;2022-08-05T03:29:53;4.22;;;3.47;;
9729;SDS011;4904;49.152;11.004;2022-08-05T03:32:20;3.45;;;3.17;;
9729;SDS011;4904;49.152;11.004;2022-08-05T03:34:51;3.90;;;3.60;;
9729;SDS011;4904;49.152;11.004;2022-08-05T03:37:19;3.78;;;3.47;;
9729;SDS011;4904;49.152;11.004;2022-08-05T03:39:58;4.80;;;3.28;;
9729;SDS011;4904;49.152;11.004;2022-08-05T03:42:27;3.85;;;3.55;;
9729;SDS011;4904;49.152;11.004;2022-08-05T03:44:54;6.40;;;3.60;;
9729;SDS011;4904;49.152;11.004;2022-08-05T03:47:21;4.60;;;4.20;;
9729;SDS011;4904;49.152;11.004;2022-08-05T03:49:48;5.72;;;3.80;;
9729;SDS011;4904;49.152;11.004;2022-08-05T03:52:17;6.18;;;4.18;;
9729;SDS011;4904;49.152;11.004;2022-08-05T03:54:48;5.13;;;3.80;;
9729;SDS011;4904;49.152;11.004;2022-08-05T03:57:21;6.85;;;3.63;;
9729;SDS011;4904;49.152;11.004;2022-08-05T03:59:52;5.00;;;3.20;;
9729;SDS011;4904;49.152;11.004;2022-08-05T04:02:24;4.35;;;3.95;;
9729;SDS011;4904;49.152;11.004;2022-08-05T04:04:55;4.20;;;3.60;;
9729;SDS011;4904;49.152;11.004;2022-08-05T04:07:24;4.07;;;3.67;;
9729;SDS011;4904;49.152;11.004;2022-08-05T04:09:52;5.35;;;3.53;;
9729;SDS011;4904;49.152;11.004;2022-08-05T04:12:22;3.78;;;3.30;;
9729;SDS011;4904;49.152;11.004;2022-08-05T04:14:49;3.28;;;3.08;;
9729;SDS011;4904;49.152;11.004;2022-08-05T04:17:16;5.43;;;3.60;;
9729;SDS011;4904;49.152;11.004;2022-08-05T04:19:44;4.00;;;3.40;;
9729;SDS011;4904;49.152;11.004;2022-08-05T04:22:13;6.35;;;3.50;;
9729;SDS011;4904;49.152;11.004;2022-08-05T04:24:40;5.63;;;3.92;;
9729;SDS011;4904;49.152;11.004;2022-08-05T04:27:09;5.88;;;4.03;;
9729;SDS011;4904;49.152;11.004;2022-08-05T04:29:37;4.18;;;3.50;;
9729;SDS011;4904;49.152;11.004;2022-08-05T04:32:05;5.18;;;3.30;;
9729;SDS011;4904;49.152;11.004;2022-08-05T04:34:38;5.85;;;3.47;;
9729;SDS011;4904;49.152;11.004;2022-08-05T04:37:05;9.20;;;3.80;;
9729;SDS011;4904;49.152;11.004;2022-08-05T04:39:32;4.95;;;3.85;;
9729;SDS011;4904;49.152;11.004;2022-08-05T04:41:59;5.22;;;3.80;;
9729;SDS011;4904;49.152;11.004;2022-08-05T04:44:28;3.85;;;3.35;;
9729;SDS011;4904;49.152;11.004;2022-08-05T04:46:56;5.18;;;4.22;;
9729;SDS011;4904;49.152;11.004;2022-08-05T04:49:23;5.95;;;3.80;;
9729;SDS011;4904;49.152;11.004;2022-08-05T04:51:50;12.20;;;4.38;;
9729;SDS011;4904;49.152;11.004;2022-08-05T04:54:16;8.23;;;4.50;;
9729;SDS011;4904;49.152;11.004;2022-08-05T04:56:45;6.32;;;4.43;;
9729;SDS011;4904;49.152;11.004;2022-08-05T04:59:13;7.88;;;4.55;;
9729;SDS011;4904;49.152;11.004;2022-08-05T05:01:40;9.05;;;4.10;;
9729;SDS011;4904;49.152;11.004;2022-08-05T05:04:09;6.95;;;4.40;;
9729;SDS011;4904;49.152;11.004;2022-08-05T05:06:36;8.00;;;4.70;;
9729;SDS011;4904;49.152;11.004;2022-08-05T05:09:03;6.25;;;4.20;;
9729;SDS011;4904;49.152;11.004;2022-08-05T05:11:30;7.80;;;4.22;;
9729;SDS011;4904;49.152;11.004;2022-08-05T05:13:57;12.13;;;4.60;;
9729;SDS011;4904;49.152;11.004;2022-08-05T05:16:23;8.25;;;3.63;;
9729;SDS011;4904;49.152;11.004;2022-08-05T05:18:51;10.43;;;4.43;;
9729;SDS011;4904;49.152;11.004;2022-08-05T05:21:19;9.52;;;4.20;;
9729;SDS011;4904;49.152;11.004;2022-08-05T05:23:46;8.82;;;4.53;;
9729;SDS011;4904;49.152;11.004;2022-08-05T05:26:13;5.55;;;4.10;;
9729;SDS011;4904;49.152;11.004;2022-08-05T05:28:40;4.65;;;4.25;;
9729;SDS011;4904;49.152;11.004;2022-08-05T05:31:07;8.63;;;4.20;;
9729;SDS011;4904;49.152;11.004;2022-08-05T05:33:34;8.60;;;3.90;;
9729;SDS011;4904;49.152;11.004;2022-08-05T05:36:01;7.25;;;3.78;;
9729;SDS011;4904;49.152;11.004;2022-08-05T05:38:29;5.72;;;3.22;;
9729;SDS011;4904;49.152;11.004;2022-08-05T05:40:56;5.00;;;3.17;;
9729;SDS011;4904;49.152;11.004;2022-08-05T05:43:23;4.22;;;3.15;;
9729;SDS011;4904;49.152;11.004;2022-08-05T05:45:50;3.92;;;3.20;;
9729;SDS011;4904;49.152;11.004;2022-08-05T05:48:17;4.72;;;3.20;;
9729;SDS011;4904;49.152;11.004;2022-08-05T05:50:44;7.13;;;3.20;;
9729;SDS011;4904;49.152;11.004;2022-08-05T05:53:11;3.10;;;2.90;;
9729;SDS011;4904;49.152;11.004;2022-08-05T05:55:40;3.00;;;2.80;;
9729;SDS011;4904;49.152;11.004;2022-08-05T05:58:07;6.43;;;3.20;;
9729;SDS011;4904;49.152;11.004;2022-08-05T06:00:34;3.60;;;3.28;;
9729;SDS011;4904;49.152;11.004;2022-08-05T06:03:01;4.75;;;2.97;;
9729;SDS011;4904;49.152;11.004;2022-08-05T06:05:28;6.15;;;3.53;;
9729;SDS011;4904;49.152;11.004;2022-08-05T06:07:55;3.85;;;3.22;;
9729;SDS011;4904;49.152;11.004;2022-08-05T06:10:22;6.35;;;3.20;;
9729;SDS011;4904;49.152;11.004;2022-08-05T06:12:50;5.57;;;3.08;;
9729;SDS011;4904;49.152;11.004;2022-08-05T06:15:17;6.18;;;3.40;;
9729;SDS011;4904;49.152;11.004;2022-08-05T06:17:44;4.32;;;3.10;;
9729;SDS011;4904;49.152;11.004;2022-08-05T06:20:11;7.40;;;3.30;;
9729;SDS011;4904;49.152;11.004;2022-08-05T06:22:38;6.22;;;3.50;;
9729;SDS011;4904;49.152;11.004;2022-08-05T06:25:05;5.75;;;3.38;;
9729;SDS011;4904;49.152;11.004;2022-08-05T06:27:33;3.60;;;3.30;;
9729;SDS011;4904;49.152;11.004;2022-08-05T06:30:01;4.68;;;2.95;;
9729;SDS011;4904;49.152;11.004;2022-08-05T06:32:28;3.13;;;2.90;;
9729;SDS011;4904;49.152;11.004;2022-08-05T06:34:56;4.75;;;3.20;;
9729;SDS011;4904;49.152;11.004;2022-08-05T06:37:23;4.93;;;3.13;;
9729;SDS011;4904;49.152;11.004;2022-08-05T06:39:53;4.72;;;3.25;;
9729;SDS011;4904;49.152;11.004;2022-08-05T06:42:20;4.40;;;3.30;;
9729;SDS011;4904;49.152;11.004;2022-08-05T06:44:47;3.90;;;3.08;;
9729;SDS011;4904;49.152;11.004;2022-08-05T06:47:15;8.02;;;3.38;;
9729;SDS011;4904;49.152;11.004;2022-08-05T06:49:42;3.97;;;3.58;;
9729;SDS011;4904;49.152;11.004;2022-08-05T06:52:09;5.75;;;3.58;;
9729;SDS011;4904;49.152;11.004;2022-08-05T06:54:36;3.63;;;3.33;;
9729;SDS011;4904;49.152;11.004;2022-08-05T06:57:03;3.42;;;3.10;;
9729;SDS011;4904;49.152;11.004;2022-08-05T06:59:30;4.93;;;3.38;;
9729;SDS011;4904;49.152;11.004;2022-08-05T07:01:57;6.50;;;3.22;;
9729;SDS011;4904;49.152;11.004;2022-08-05T07:04:25;5.43;;;3.08;;
9729;SDS011;4904;49.152;11.004;2022-08-05T07:06:52;5.75;;;3.10;;
9729;SDS011;4904;49.152;11.004;2022-08-05T07:09:19;3.65;;;2.95;;
9729;SDS011;4904;49.152;11.004;2022-08-05T07:11:46;4.78;;;3.00;;
9729;SDS011;4904;49.152;11.004;2022-08-05T07:14:13;5.45;;;3.30;;
9729;SDS011;4904;49.152;11.004;2022-08-05T07:16:57;7.25;;;3.20;;
9729;SDS011;4904;49.152;11.004;2022-08-05T07:19:26;5.43;;;3.00;;
9729;SDS011;4904;49.152;11.004;2022-08-05T07:21:53;3.92;;;3.30;;
9729;SDS011;4904;49.152;11.004;2022-08-05T07:24:22;4.97;;;3.00;;
9729;SDS011;4904;49.152;11.004;2022-08-05T07:26:49;4.28;;;3.13;;
9729;SDS011;4904;49.152;11.004;2022-08-05T07:29:16;4.00;;;2.90;;
9729;SDS011;4904;49.152;11.004;2022-08-05T07:31:43;6.57;;;2.92;;
9729;SDS011;4904;49.152;11.004;2022-08-05T07:34:10;4.57;;;3.40;;
9729;SDS011;4904;49.152;11.004;2022-08-05T07:36:39;5.90;;;3.47;;
9729;SDS011;4904;49.152;11.004;2022-08-05T07:39:06;6.55;;;2.90;;
9729;SDS011;4904;49.152;11.004;2022-08-05T07:41:34;4.55;;;3.05;;
9729;SDS011;4904;49.152;11.004;2022-08-05T07:44:02;5.70;;;3.00;;
9729;SDS011;4904;49.152;11.004;2022-08-05T07:46:30;4.68;;;3.30;;
9729;SDS011;4904;49.152;11.004;2022-08-05T07:48:58;4.60;;;3.05;;
9729;SDS011;4904;49.152;11.004;2022-08-05T07:51:27;5.38;;;3.05;;
9729;SDS011;4904;49.152;11.004;2022-08-05T07:53:55;3.13;;;2.83;;
9729;SDS011;4904;49.152;11.004;2022-08-05T07:56:22;6.22;;;3.30;;
9729;SDS011;4904;49.152;11.004;2022-08-05T07:58:49;5.53;;;3.30;;
9729;SDS011;4904;49.152;11.004;2022-08-05T08:01:17;6.65;;;2.97;;
9729;SDS011;4904;49.152;11.004;2022-08-05T08:03:44;5.28;;;3.03;;
9729;SDS011;4904;49.152;11.004;2022-08-05T08:06:11;6.30;;;2.90;;
9729;SDS011;4904;49.152;11.004;2022-08-05T08:08:38;6.88;;;3.42;;
9729;SDS011;4904;49.152;11.004;2022-08-05T08:11:06;4.05;;;2.95;;
9729;SDS011;4904;49.152;11.004;2022-08-05T08:13:33;5.05;;;3.17;;
9729;SDS011;4904;49.152;11.004;2022-08-05T08:16:00;6.35;;;2.95;;
9729;SDS011;4904;49.152;11.004;2022-08-05T08:18:27;5.72;;;2.67;;
9729;SDS011;4904;49.152;11.004;2022-08-05T08:20:54;3.08;;;2.78;;
9729;SDS011;4904;49.152;11.004;2022-08-05T08:23:21;3.65;;;2.90;;
9729;SDS011;4904;49.152;11.004;2022-08-05T08:25:48;5.35;;;2.70;;
9729;SDS011;4904;49.152;11.004;2022-08-05T08:28:16;4.07;;;2.90;;
9729;SDS011;4904;49.152;11.004;2022-08-05T08:30:43;6.63;;;3.00;;
9729;SDS011;4904;49.152;11.004;2022-08-05T08:33:10;6.68;;;3.03;;
9729;SDS011;4904;49.152;11.004;2022-08-05T08:35:37;4.82;;;3.00;;
9729;SDS011;4904;49.152;11.004;2022-08-05T08:38:04;4.75;;;2.97;;
9729;SDS011;4904;49.152;11.004;2022-08-05T08:40:31;4.97;;;3.10;;
9729;SDS011;4904;49.152;11.004;2022-08-05T08:43:00;6.40;;;3.22;;
9729;SDS011;4904;49.152;11.004;2022-08-05T08:45:29;7.20;;;6.30;;
9729;SDS011;4904;49.152;11.004;2022-08-05T08:47:58;5.15;;;2.67;;
9729;SDS011;4904;49.152;11.004;2022-08-05T08:50:29;3.60;;;2.80;;
9729;SDS011;4904;49.152;11.004;2022-08-05T08:52:59;4.32;;;2.70;;
9729;SDS011;4904;49.152;11.004;2022-08-05T08:55:28;7.90;;;2.65;;
9729;SDS011;4904;49.152;11.004;2022-08-05T08:57:56;2.72;;;2.50;;
9729;SDS011;4904;49.152;11.004;2022-08-05T09:00:24;4.45;;;2.47;;
9729;SDS011;4904;49.152;11.004;2022-08-05T09:02:53;4.85;;;2.80;;
9729;SDS011;4904;49.152;11.004;2022-08-05T09:05:21;6.70;;;3.00;;
9729;SDS011;4904;49.152;11.004;2022-08-05T09:07:49;3.60;;;2.53;;
9729;SDS011;4904;49.152;11.004;2022-08-05T09:10:17;3.30;;;2.70;;
9729;SDS011;4904;49.152;11.004;2022-08-05T09:12:44;6.85;;;2.50;;
9729;SDS011;4904;49.152;11.004;2022-08-05T09:15:11;2.72;;;2.53;;
9729;SDS011;4904;49.152;11.004;2022-08-05T09:17:39;3.15;;;2.40;;
9729;SDS011;4904;49.152;11.004;2022-08-05T09:20:08;2.47;;;2.28;;
9729;SDS011;4904;49.152;11.004;2022-08-05T09:25:29;3.22;;;2.25;;
9729;SDS011;4904;49.152;11.004;2022-08-05T09:28:04;2.92;;;2.33;;
9729;SDS011;4904;49.152;11.004;2022-08-05T09:30:34;2.40;;;2.20;;
9729;SDS011;4904;49.152;11.004;2022-08-05T09:33:01;3.50;;;2.33;;
9729;SDS011;4904;49.152;11.004;2022-08-05T09:35:30;2.80;;;2.15;;
9729;SDS011;4904;49.152;11.004;2022-08-05T09:37:57;2.85;;;2.20;;
9729;SDS011;4904;49.152;11.004;2022-08-05T09:40:27;5.65;;;2.20;;
9729;SDS011;4904;49.152;11.004;2022-08-05T09:42:56;2.33;;;2.17;;
9729;SDS011;4904;49.152;11.004;2022-08-05T09:45:28;3.90;;;2.17;;
9729;SDS011;4904;49.152;11.004;2022-08-05T09:50:51;1.95;;;1.83;;
9729;SDS011;4904;49.152;11.004;2022-08-05T09:53:19;2.63;;;2.20;;
9729;SDS011;4904;49.152;11.004;2022-08-05T09:55:50;2.10;;;1.80;;
9729;SDS011;4904;49.152;11.004;2022-08-05T09:58:18;3.67;;;1.83;;
9729;SDS011;4904;49.152;11.004;2022-08-05T10:00:53;2.60;;;2.00;;
9729;SDS011;4904;49.152;11.004;2022-08-05T10:03:22;2.13;;;1.92;;
9729;SDS011;4904;49.152;11.004;2022-08-05T10:06:04;2.78;;;1.80;;
9729;SDS011;4904;49.152;11.004;2022-08-05T10:08:33;2.30;;;2.10;;
9729;SDS011;4904;49.152;11.004;2022-08-05T10:11:02;4.72;;;2.00;;
9729;SDS011;4904;49.152;11.004;2022-08-05T10:13:31;3.20;;;1.90;;
9729;SDS011;4904;49.152;11.004;2022-08-05T10:16:01;3.30;;;1.85;;
9729;SDS011;4904;49.152;11.004;2022-08-05T10:18:28;3.10;;;1.92;;
9729;SDS011;4904;49.152;11.004;2022-08-05T10:20:58;2.38;;;2.00;;
9729;SDS011;4904;49.152;11.004;2022-08-05T10:23:28;2.08;;;1.70;;
9729;SDS011;4904;49.152;11.004;2022-08-05T10:25:57;2.10;;;1.95;;
9729;SDS011;4904;49.152;11.004;2022-08-05T10:28:25;2.20;;;1.88;;
9729;SDS011;4904;49.152;11.004;2022-08-05T10:30:53;2.97;;;2.10;;
9729;SDS011;4904;49.152;11.004;2022-08-05T10:33:21;3.42;;;1.83;;
9729;SDS011;4904;49.152;11.004;2022-08-05T10:35:50;4.45;;;2.00;;
9729;SDS011;4904;49.152;11.004;2022-08-05T10:38:17;2.92;;;2.08;;
9729;SDS011;4904;49.152;11.004;2022-08-05T10:40:53;2.95;;;2.10;;
9729;SDS011;4904;49.152;11.004;2022-08-05T10:43:31;3.03;;;1.92;;
9729;SDS011;4904;49.152;11.004;2022-08-05T10:46:02;2.50;;;1.98;;
9729;SDS011;4904;49.152;11.004;2022-08-05T10:48:32;2.13;;;1.90;;
9729;SDS011;4904;49.152;11.004;2022-08-05T10:51:02;4.75;;;2.10;;
9729;SDS011;4904;49.152;11.004;2022-08-05T10:53:31;2.53;;;1.98;;
9729;SDS011;4904;49.152;11.004;2022-08-05T10:56:05;2.47;;;2.28;;
9729;SDS011;4904;49.152;11.004;2022-08-05T10:58:35;2.25;;;1.95;;
9729;SDS011;4904;49.152;11.004;2022-08-05T11:01:13;2.50;;;2.30;;
9729;SDS011;4904;49.152;11.004;2022-08-05T11:06:30;2.20;;;2.10;;
9729;SDS011;4904;49.152;11.004;2022-08-05T11:09:11;2.30;;;2.10;;
9729;SDS011;4904;49.152;11.004;2022-08-05T11:11:43;3.25;;;1.92;;
9729;SDS011;4904;49.152;11.004;2022-08-05T11:14:11;2.40;;;2.20;;
9729;SDS011;4904;49.152;11.004;2022-08-05T11:16:39;2.08;;;1.98;;
9729;SDS011;4904;49.152;11.004;2022-08-05T11:21:53;1.88;;;1.77;;
9729;SDS011;4904;49.152;11.004;2022-08-05T11:24:20;2.75;;;1.95;;
9729;SDS011;4904;49.152;11.004;2022-08-05T11:26:50;2.38;;;2.22;;
9729;SDS011;4904;49.152;11.004;2022-08-05T11:29:58;2.60;;;2.20;;
9729;SDS011;4904;49.152;11.004;2022-08-05T11:32:25;3.03;;;2.00;;
9729;SDS011;4904;49.152;11.004;2022-08-05T11:34:54;2.80;;;2.17;;
9729;SDS011;4904;49.152;11.004;2022-08-05T11:43:28;2.40;;;2.28;;
9729;SDS011;4904;49.152;11.004;2022-08-05T11:45:56;2.08;;;1.98;;
9729;SDS011;4904;49.152;11.004;2022-08-05T11:48:23;3.03;;;2.08;;
9729;SDS011;4904;49.152;11.004;2022-08-05T11:50:51;2.25;;;2.05;;
9729;SDS011;4904;49.152;11.004;2022-08-05T11:53:18;2.42;;;2.22;;
9729;SDS011;4904;49.152;11.004;2022-08-05T11:55:52;3.63;;;2.17;;
9729;SDS011;4904;49.152;11.004;2022-08-05T11:58:24;2.13;;;1.95;;
9729;SDS011;4904;49.152;11.004;2022-08-05T12:01:02;3.13;;;2.17;;
9729;SDS011;4904;49.152;11.004;2022-08-05T12:03:33;5.55;;;2.10;;
9729;SDS011;4904;49.152;11.004;2022-08-05T12:06:06;2.42;;;1.77;;
9729;SDS011;4904;49.152;11.004;2022-08-05T12:08:38;2.83;;;1.90;;
9729;SDS011;4904;49.152;11.004;2022-08-05T12:11:07;4.00;;;2.00;;
9729;SDS011;4904;49.152;11.004;2022-08-05T12:13:37;3.03;;;2.83;;
9729;SDS011;4904;49.152;11.004;2022-08-05T12:16:07;5.57;;;4.03;;
9729;SDS011;4904;49.152;11.004;2022-08-05T12:18:35;3.15;;;1.92;;
9729;SDS011;4904;49.152;11.004;2022-08-05T12:21:10;2.00;;;1.90;;
9729;SDS011;4904;49.152;11.004;2022-08-05T12:23:37;2.92;;;2.00;;
9729;SDS011;4904;49.152;11.004;2022-08-05T12:26:05;2.40;;;2.20;;
9729;SDS011;4904;49.152;11.004;2022-08-05T12:28:32;2.22;;;2.08;;
9729;SDS011;4904;49.152;11.004;2022-08-05T12:31:01;2.78;;;1.92;;
9729;SDS011;4904;49.152;11.004;2022-08-05T12:33:29;2.25;;;2.05;;
9729;SDS011;4904;49.152;11.004;2022-08-05T12:35:57;2.22;;;2.13;;
9729;SDS011;4904;49.152;11.004;2022-08-05T12:38:24;3.33;;;2.08;;
9729;SDS011;4904;49.152;11.004;2022-08-05T12:40:51;1.88;;;1.77;;
9729;SDS011;4904;49.152;11.004;2022-08-05T12:43:21;2.53;;;2.30;;
9729;SDS011;4904;49.152;11.004;2022-08-05T12:45:51;4.07;;;2.20;;
9729;SDS011;4904;49.152;11.004;2022-08-05T12:48:20;2.22;;;2.00;;
9729;SDS011;4904;49.152;11.004;2022-08-05T12:53:41;2.22;;;2.03;;
9729;SDS011;4904;49.152;11.004;2022-08-05T12:56:15;4.70;;;2.10;;
9729;SDS011;4904;49.152;11.004;2022-08-05T12:58:43;4.03;;;2.35;;
9729;SDS011;4904;49.152;11.004;2022-08-05T13:01:12;2.13;;;1.90;;
9729;SDS011;4904;49.152;11.004;2022-08-05T13:03:41;3.28;;;2.35;;
9729;SDS011;4904;49.152;11.004;2022-08-05T13:06:12;2.20;;;2.10;;
9729;SDS011;4904;49.152;11.004;2022-08-05T13:08:40;2.42;;;2.20;;
9729;SDS011;4904;49.152;11.004;2022-08-05T13:11:08;4.63;;;2.08;;
9729;SDS011;4904;49.152;11.004;2022-08-05T13:13:41;1.92;;;1.83;;
9729;SDS011;4904;49.152;11.004;2022-08-05T13:16:12;3.72;;;2.40;;
9729;SDS011;4904;49.152;11.004;2022-08-05T13:18:50;2.50;;;2.30;;
9729;SDS011;4904;49.152;11.004;2022-08-05T13:21:17;2.60;;;2.40;;
9729;SDS011;4904;49.152;11.004;2022-08-05T13:23:44;3.88;;;2.28;;
9729;SDS011;4904;49.152;11.004;2022-08-05T13:26:11;2.83;;;2.20;;
9729;SDS011;4904;49.152;11.004;2022-08-05T13:28:38;2.47;;;1.75;;
9729;SDS011;4904;49.152;11.004;2022-08-05T13:31:05;4.78;;;1.92;;
9729;SDS011;4904;49.152;11.004;2022-08-05T13:33:32;2.30;;;2.10;;
9729;SDS011;4904;49.152;11.004;2022-08-05T13:36:00;2.30;;;1.95;;
9729;SDS011;4904;49.152;11.004;2022-08-05T13:38:27;2.92;;;2.20;;
9729;SDS011;4904;49.152;11.004;2022-08-05T13:40:54;2.00;;;1.90;;
9729;SDS011;4904;49.152;11.004;2022-08-05T13:43:21;2.67;;;2.00;;
9729;SDS011;4904;49.152;11.004;2022-08-05T13:45:48;2.60;;;2.40;;
9729;SDS011;4904;49.152;11.004;2022-08-05T13:48:15;2.53;;;2.33;;
9729;SDS011;4904;49.152;11.004;2022-08-05T13:50:42;3.17;;;2.28;;
9729;SDS011;4904;49.152;11.004;2022-08-05T13:53:10;2.60;;;2.40;;
9729;SDS011;4904;49.152;11.004;2022-08-05T13:55:37;3.15;;;2.60;;
9729;SDS011;4904;49.152;11.004;2022-08-05T13:58:04;2.60;;;2.20;;
9729;SDS011;4904;49.152;11.004;2022-08-05T14:00:31;2.58;;;2.20;;
9729;SDS011;4904;49.152;11.004;2022-08-05T14:03:00;4.07;;;2.30;;
9729;SDS011;4904;49.152;11.004;2022-08-05T14:05:27;2.70;;;2.50;;
9729;SDS011;4904;49.152;11.004;2022-08-05T14:07:54;3.83;;;2.50;;
9729;SDS011;4904;49.152;11.004;2022-08-05T14:10:23;2.05;;;1.95;;
9729;SDS011;4904;49.152;11.004;2022-08-05T14:12:50;3.53;;;2.33;;
9729;SDS011;4904;49.152;11.004;2022-08-05T14:15:17;2.30;;;2.20;;
9729;SDS011;4904;49.152;11.004;2022-08-05T14:17:44;2.70;;;2.30;;
9729;SDS011;4904;49.152;11.004;2022-08-05T14:20:11;2.67;;;2.45;;
9729;SDS011;4904;49.152;11.004;2022-08-05T14:22:39;2.55;;;2.08;;
9729;SDS011;4904;49.152;11.004;2022-08-05T14:25:08;2.85;;;2.65;;
9729;SDS011;4904;49.152;11.004;2022-08-05T14:27:36;2.28;;;2.15;;
9729;SDS011;4904;49.152;11.004;2022-08-05T14:30:04;3.80;;;2.95;;
9729;SDS011;4904;49.152;11.004;2022-08-05T14:32:31;2.50;;;2.30;;
9729;SDS011;4904;49.152;11.004;2022-08-05T14:34:58;2.40;;;2.20;;
9729;SDS011;4904;49.152;11.004;2022-08-05T14:37:25;4.72;;;2.40;;
9729;SDS011;4904;49.152;11.004;2022-08-05T14:39:52;2.47;;;2.38;;
9729;SDS011;4904;49.152;11.004;2022-08-05T14:42:19;3.67;;;2.63;;
9729;SDS011;4904;49.152;11.004;2022-08-05T14:44:48;2.38;;;2.17;;
9729;SDS011;4904;49.152;11.004;2022-08-05T14:47:15;2.92;;;2.60;;
9729;SDS011;4904;49.152;11.004;2022-08-05T14:49:42;2.90;;;2.20;;
9729;SDS011;4904;49.152;11.004;2022-08-05T14:52:09;2.67;;;2.47;;
9729;SDS011;4904;49.152;11.004;2022-08-05T14:54:36;2.50;;;2.30;;
9729;SDS011;4904;49.152;11.004;2022-08-05T14:57:03;2.92;;;2.55;;
9729;SDS011;4904;49.152;11.004;2022-08-05T14:59:30;5.15;;;2.80;;
9729;SDS011;4904;49.152;11.004;2022-08-05T15:01:59;4.03;;;2.60;;
9729;SDS011;4904;49.152;11.004;2022-08-05T15:04:26;3.15;;;2.53;;
9729;SDS011;4904;49.152;11.004;2022-08-05T15:06:53;2.33;;;2.13;;
9729;SDS011;4904;49.152;11.004;2022-08-05T15:09:20;3.13;;;2.67;;
9729;SDS011;4904;49.152;11.004;2022-08-05T15:11:47;3.90;;;2.40;;
9729;SDS011;4904;49.152;11.004;2022-08-05T15:14:14;3.75;;;2.40;;
9729;SDS011;4904;49.152;11.004;2022-08-05T15:16:41;13.40;;;12.15;;
9729;SDS011;4904;49.152;11.004;2022-08-05T15:19:10;5.25;;;4.85;;
9729;SDS011;4904;49.152;11.004;2022-08-05T15:21:37;6.07;;;5.10;;
9729;SDS011;4904;49.152;11.004;2022-08-05T15:24:04;2.70;;;2.50;;
9729;SDS011;4904;49.152;11.004;2022-08-05T15:26:31;2.33;;;2.13;;
9729;SDS011;4904;49.152;11.004;2022-08-05T15:28:58;3.35;;;2.30;;